createdAt,value
2019-02-21T00:00:07.964Z,1.20
2019-02-21T00:02:55.146Z,1.33
2019-02-21T00:05:49.686Z,1.50
2019-02-21T00:08:36.908Z,1.60
2019-02-21T00:11:31.236Z,1.50
2019-02-21T00:14:18.418Z,1.40
2019-02-21T00:17:12.740Z,1.30
2019-02-21T00:20:00.097Z,1.57
2019-02-21T00:22:53.672Z,1.30
2019-02-21T00:25:41.210Z,1.40
2019-02-21T00:28:34.830Z,1.43
2019-02-21T00:31:22.174Z,1.47
2019-02-21T00:34:17.047Z,1.50
2019-02-21T00:37:11.360Z,1.40
2019-02-21T00:40:13.800Z,1.37
2019-02-21T00:43:00.950Z,1.43
2019-02-21T00:45:54.759Z,1.43
2019-02-21T00:48:41.892Z,1.50
2019-02-21T00:51:37.295Z,1.57
2019-02-21T00:54:24.624Z,1.70
2019-02-21T00:57:25.281Z,1.60
2019-02-21T01:00:13.395Z,1.37
2019-02-21T01:03:24.277Z,1.47
2019-02-21T01:06:11.547Z,1.67
2019-02-21T01:09:05.559Z,1.40
2019-02-21T01:11:59.899Z,1.47
2019-02-21T01:14:53.978Z,1.30
2019-02-21T01:17:41.356Z,1.30
2019-02-21T01:20:36.196Z,1.50
2019-02-21T01:23:23.458Z,1.60
2019-02-21T01:26:17.891Z,1.30
2019-02-21T01:29:05.166Z,1.20
2019-02-21T01:31:59.021Z,1.17
2019-02-21T01:34:46.398Z,1.50
2019-02-21T01:37:47.291Z,1.60
2019-02-21T01:40:41.370Z,1.60
2019-02-21T01:43:35.250Z,1.63
2019-02-21T01:46:22.468Z,1.40
2019-02-21T01:49:17.053Z,1.70
2019-02-21T01:52:04.448Z,1.17
2019-02-21T01:54:57.951Z,1.50
2019-02-21T01:57:51.501Z,1.30
2019-02-21T02:00:45.623Z,1.33
2019-02-21T02:03:33.091Z,1.50
2019-02-21T02:06:26.811Z,1.47
2019-02-21T02:09:13.931Z,1.40
2019-02-21T02:12:09.452Z,1.40
2019-02-21T02:14:59.639Z,1.30
2019-02-21T02:17:53.716Z,1.30
2019-02-21T02:20:41.248Z,1.37
2019-02-21T02:23:34.905Z,1.40
2019-02-21T02:26:22.279Z,1.57
2019-02-21T02:29:16.220Z,1.40
2019-02-21T02:32:09.463Z,1.43
2019-02-21T02:35:01.635Z,1.30
2019-02-21T02:37:56.002Z,1.30
2019-02-21T02:40:57.244Z,1.30
2019-02-21T02:43:44.737Z,1.57
2019-02-21T02:46:38.440Z,1.30
2019-02-21T02:49:25.754Z,1.20
2019-02-21T02:52:19.558Z,1.30
2019-02-21T02:55:06.818Z,1.33
2019-02-21T02:58:01.076Z,1.60
2019-02-21T03:00:54.873Z,1.40
2019-02-21T03:03:49.212Z,1.20
2019-02-21T03:06:36.537Z,1.50
2019-02-21T03:09:31.306Z,1.20
2019-02-21T03:12:18.822Z,1.40
2019-02-21T03:15:13.698Z,1.30
2019-02-21T03:18:01.223Z,1.40
2019-02-21T03:20:55.263Z,1.27
2019-02-21T03:23:42.651Z,1.30
2019-02-21T03:26:36.782Z,1.47
2019-02-21T03:29:24.004Z,1.30
2019-02-21T03:32:18.386Z,1.50
2019-02-21T03:35:07.060Z,1.60
2019-02-21T03:38:01.103Z,1.30
2019-02-21T03:40:55.303Z,1.53
2019-02-21T03:43:51.491Z,1.13
2019-02-21T03:46:38.601Z,1.20
2019-02-21T03:49:35.459Z,1.40
2019-02-21T03:52:22.827Z,1.60
2019-02-21T03:55:16.845Z,1.33
2019-02-21T03:58:03.855Z,1.57
2019-02-21T04:00:58.190Z,1.50
2019-02-21T04:03:53.536Z,1.40
2019-02-21T04:06:49.187Z,1.50
2019-02-21T04:09:36.503Z,1.50
2019-02-21T04:12:30.505Z,1.50
2019-02-21T04:15:17.610Z,1.63
2019-02-21T04:18:13.444Z,1.50
2019-02-21T04:21:00.347Z,1.50
2019-02-21T04:23:58.395Z,1.50
2019-02-21T04:26:47.654Z,1.50
2019-02-21T04:29:41.786Z,1.70
2019-02-21T04:32:28.965Z,1.40
2019-02-21T04:35:22.772Z,1.50
2019-02-21T04:38:10.041Z,1.60
2019-02-21T04:41:11.006Z,1.50
2019-02-21T04:44:05.334Z,1.50
2019-02-21T04:46:59.152Z,1.90
2019-02-21T04:49:46.093Z,1.57
2019-02-21T04:52:40.177Z,1.50
2019-02-21T04:55:27.810Z,1.60
2019-02-21T04:58:21.941Z,1.53
2019-02-21T05:01:08.945Z,1.40
2019-02-21T05:04:04.937Z,1.80
2019-02-21T05:06:58.806Z,1.50
2019-02-21T05:09:57.968Z,1.50
2019-02-21T05:12:42.472Z,1.30
2019-02-21T05:15:37.960Z,1.80
2019-02-21T05:18:25.471Z,1.60
2019-02-21T05:21:19.979Z,1.60
2019-02-21T05:24:07.311Z,1.70
2019-02-21T05:27:03.035Z,1.53
2019-02-21T05:29:50.543Z,1.60
2019-02-21T05:32:48.424Z,1.53
2019-02-21T05:35:37.482Z,1.63
2019-02-21T05:38:41.647Z,1.47
2019-02-21T05:41:39.334Z,1.60
2019-02-21T05:44:47.283Z,1.60
2019-02-21T05:47:52.357Z,1.77
2019-02-21T05:50:48.375Z,1.80
2019-02-21T05:53:58.086Z,1.50
2019-02-21T05:56:57.022Z,1.57
2019-02-21T05:59:54.646Z,1.67
2019-02-21T06:03:07.423Z,1.50
2019-02-21T06:05:59.682Z,1.90
2019-02-21T06:09:04.571Z,1.93
2019-02-21T06:11:53.598Z,1.77
2019-02-21T06:14:52.622Z,1.70
2019-02-21T06:17:41.383Z,1.70
2019-02-21T06:20:41.492Z,1.70
2019-02-21T06:23:39.542Z,1.70
2019-02-21T06:26:35.577Z,1.40
2019-02-21T06:29:24.241Z,1.90
2019-02-21T06:32:18.187Z,2.10
2019-02-21T06:35:06.610Z,1.90
2019-02-21T06:38:01.112Z,1.87
2019-02-21T06:40:49.516Z,1.80
2019-02-21T06:43:52.565Z,1.60
2019-02-21T06:46:45.624Z,1.73
2019-02-21T06:49:40.112Z,1.70
2019-02-21T06:52:27.390Z,1.60
2019-02-21T06:55:21.882Z,1.80
2019-02-21T06:58:09.050Z,1.60
2019-02-21T07:01:03.680Z,2.00
2019-02-21T07:03:50.944Z,1.93
2019-02-21T07:06:48.746Z,1.70
2019-02-21T07:09:43.308Z,2.00
2019-02-21T07:15:29.680Z,2.00
2019-02-21T07:18:24.187Z,2.00
2019-02-21T07:21:13.256Z,1.93
2019-02-21T07:24:06.977Z,1.90
2019-02-21T07:26:53.981Z,1.90
2019-02-21T07:29:47.876Z,1.87
2019-02-21T07:32:35.326Z,2.13
2019-02-21T07:35:29.840Z,1.80
2019-02-21T07:38:17.363Z,1.77
2019-02-21T07:41:12.090Z,1.83
2019-02-21T07:44:12.103Z,1.90
2019-02-21T07:47:08.638Z,1.87
2019-02-21T07:49:56.356Z,2.03
2019-02-21T07:53:01.636Z,1.80
2019-02-21T07:55:39.823Z,1.70
2019-02-21T07:58:33.600Z,1.70
2019-02-21T08:01:20.862Z,1.70
2019-02-21T08:04:15.259Z,1.70
2019-02-21T08:07:02.623Z,1.73
2019-02-21T08:09:56.651Z,1.70
2019-02-21T08:12:53.662Z,1.80
2019-02-21T08:15:46.644Z,2.00
2019-02-21T08:18:34.338Z,2.27
2019-02-21T08:21:28.823Z,1.80
2019-02-21T08:24:16.200Z,1.83
2019-02-21T08:27:10.674Z,2.13
2019-02-21T08:29:57.889Z,2.20
2019-02-21T08:33:11.833Z,2.10
2019-02-21T08:35:59.596Z,2.17
2019-02-21T08:38:53.474Z,2.20
2019-02-21T08:41:40.677Z,2.00
2019-02-21T08:44:41.618Z,2.20
2019-02-21T08:47:35.930Z,2.30
2019-02-21T08:50:30.533Z,2.10
2019-02-21T08:53:18.041Z,1.93
2019-02-21T08:56:11.956Z,2.40
2019-02-21T08:58:59.280Z,1.90
2019-02-21T09:01:52.670Z,2.10
2019-02-21T09:04:39.939Z,2.03
2019-02-21T09:07:33.948Z,1.90
2019-02-21T09:10:20.923Z,2.10
2019-02-21T09:13:17.018Z,2.07
2019-02-21T09:16:10.918Z,1.80
2019-02-21T09:19:06.456Z,2.20
2019-02-21T09:21:53.757Z,1.73
2019-02-21T09:24:47.798Z,1.90
2019-02-21T09:27:35.434Z,2.00
2019-02-21T09:30:29.507Z,1.80
2019-02-21T09:33:18.989Z,2.00
2019-02-21T09:36:12.776Z,1.90
2019-02-21T09:39:00.512Z,1.83
2019-02-21T09:41:55.002Z,1.67
2019-02-21T09:44:49.873Z,1.40
2019-02-21T09:47:50.884Z,1.83
2019-02-21T09:50:38.361Z,1.90
2019-02-21T09:53:32.781Z,1.77
2019-02-21T09:56:29.866Z,1.70
2019-02-21T09:59:18.855Z,1.90
2019-02-21T10:02:08.836Z,1.80
2019-02-21T10:05:05.359Z,1.60
2019-02-21T10:07:52.462Z,1.87
2019-02-21T10:10:45.747Z,1.70
2019-02-21T10:13:34.469Z,1.70
2019-02-21T10:16:28.415Z,1.70
2019-02-21T10:19:22.605Z,1.80
2019-02-21T10:22:16.469Z,1.50
2019-02-21T10:25:03.908Z,1.60
2019-02-21T10:27:59.126Z,2.03
2019-02-21T10:30:46.495Z,1.40
2019-02-21T10:33:46.834Z,1.60
2019-02-21T10:36:29.466Z,1.40
2019-02-21T10:39:26.644Z,1.40
2019-02-21T10:42:13.895Z,1.40
2019-02-21T10:45:08.439Z,1.50
2019-02-21T10:48:02.743Z,1.37
2019-02-21T10:50:58.860Z,1.50
2019-02-21T10:53:46.159Z,1.50
2019-02-21T10:56:39.957Z,1.70
2019-02-21T10:59:27.373Z,1.73
2019-02-21T11:02:21.574Z,1.80
2019-02-21T11:05:09.218Z,1.60
2019-02-21T11:08:20.105Z,1.50
2019-02-21T11:11:07.601Z,1.80
2019-02-21T11:14:04.040Z,1.67
2019-02-21T11:16:50.654Z,1.60
2019-02-21T11:19:45.113Z,1.60
2019-02-21T11:22:39.803Z,1.37
2019-02-21T11:25:33.593Z,1.60
2019-02-21T11:28:20.848Z,1.43
2019-02-21T11:31:14.688Z,1.57
2019-02-21T11:34:01.989Z,1.50
2019-02-21T11:36:56.284Z,1.80
2019-02-21T11:39:43.763Z,1.40
2019-02-21T11:42:43.728Z,1.50
2019-02-21T11:45:36.035Z,1.60
2019-02-21T11:48:39.184Z,1.57
2019-02-21T11:51:26.194Z,1.53
2019-02-21T11:54:28.243Z,1.47
2019-02-21T11:57:15.486Z,1.50
2019-02-21T12:02:58.803Z,1.43
2019-02-21T12:05:52.986Z,1.80
2019-02-21T12:08:40.818Z,1.43
2019-02-21T12:11:38.240Z,1.47
2019-02-21T12:14:25.129Z,1.27
2019-02-21T12:17:19.695Z,1.30
2019-02-21T12:20:08.452Z,1.60
2019-02-21T12:23:02.324Z,1.30
2019-02-21T12:25:59.513Z,1.57
2019-02-21T12:28:53.501Z,1.40
2019-02-21T12:31:40.895Z,1.47
2019-02-21T12:34:34.781Z,1.53
2019-02-21T12:37:22.177Z,1.60
2019-02-21T12:40:17.083Z,1.63
2019-02-21T12:43:04.431Z,1.50
2019-02-21T12:46:00.075Z,1.20
2019-02-21T12:48:53.718Z,1.40
2019-02-21T12:51:47.591Z,1.60
2019-02-21T12:54:35.390Z,1.40
2019-02-21T12:57:30.217Z,1.60
2019-02-21T13:00:18.570Z,1.53
2019-02-21T13:03:13.776Z,1.63
2019-02-21T13:06:02.876Z,1.60
2019-02-21T13:08:56.948Z,1.70
2019-02-21T13:11:43.941Z,1.60
2019-02-21T13:14:38.200Z,1.50
2019-02-21T13:17:25.699Z,1.53
2019-02-21T13:20:20.770Z,1.73
2019-02-21T13:23:07.971Z,1.60
2019-02-21T13:26:02.581Z,1.53
2019-02-21T13:28:56.982Z,1.43
2019-02-21T13:31:51.589Z,1.33
2019-02-21T13:34:38.621Z,1.43
2019-02-21T13:37:32.689Z,1.50
2019-02-21T13:40:22.609Z,1.47
2019-02-21T13:43:18.993Z,1.47
2019-02-21T13:46:06.669Z,1.43
2019-02-21T13:49:00.893Z,1.50
2019-02-21T13:51:55.253Z,1.40
2019-02-21T13:54:56.758Z,1.40
2019-02-21T13:57:43.833Z,1.60
2019-02-21T14:00:37.885Z,1.57
2019-02-21T14:03:25.203Z,1.67
2019-02-21T14:06:21.856Z,1.50
2019-02-21T14:09:10.990Z,1.57
2019-02-21T14:12:05.075Z,1.67
2019-02-21T14:14:52.294Z,1.90
2019-02-21T14:17:47.416Z,1.50
2019-02-21T14:20:45.054Z,1.63
2019-02-21T14:23:30.996Z,1.47
2019-02-21T14:26:19.428Z,1.50
2019-02-21T14:29:14.246Z,1.60
2019-02-21T14:32:08.094Z,1.17
2019-02-21T14:35:03.991Z,1.43
2019-02-21T14:37:51.282Z,1.70
2019-02-21T14:40:45.448Z,1.50
2019-02-21T14:43:32.985Z,1.40
2019-02-21T14:46:26.802Z,1.50
2019-02-21T14:49:14.414Z,1.40
2019-02-21T14:52:14.767Z,1.47
2019-02-21T14:55:10.298Z,1.23
2019-02-21T14:58:04.290Z,1.40
2019-02-21T15:00:51.906Z,1.27
2019-02-21T15:03:49.076Z,1.50
2019-02-21T15:06:36.198Z,1.60
2019-02-21T15:09:30.579Z,1.50
2019-02-21T15:12:17.783Z,1.27
2019-02-21T15:15:13.824Z,1.30
2019-02-21T15:18:07.694Z,1.30
2019-02-21T15:20:57.275Z,1.30
2019-02-21T15:23:44.560Z,1.63
2019-02-21T15:26:38.312Z,1.40
2019-02-21T15:29:25.912Z,1.53
2019-02-21T15:32:20.172Z,1.40
2019-02-21T15:35:14.084Z,1.50
2019-02-21T15:38:19.035Z,1.27
2019-02-21T15:40:56.742Z,1.50
2019-02-21T15:43:50.646Z,1.37
2019-02-21T15:46:37.793Z,1.60
2019-02-21T15:49:31.556Z,1.07
2019-02-21T15:52:22.298Z,1.53
2019-02-21T15:55:22.668Z,1.43
2019-02-21T15:58:17.326Z,1.33
2019-02-21T16:01:14.169Z,1.30
2019-02-21T16:04:00.359Z,1.40
2019-02-21T16:06:55.232Z,1.60
2019-02-21T16:09:42.683Z,1.50
2019-02-21T16:12:37.867Z,1.50
2019-02-21T16:15:25.552Z,1.47
2019-02-21T16:18:19.679Z,1.30
2019-02-21T16:21:07.216Z,1.30
2019-02-21T16:24:00.890Z,1.30
2019-02-21T16:26:48.628Z,1.43
2019-02-21T16:32:31.894Z,1.40
2019-02-21T16:35:27.275Z,1.43
2019-02-21T16:38:23.014Z,1.33
2019-02-21T16:41:17.192Z,1.40
2019-02-21T16:44:06.990Z,1.70
2019-02-21T16:46:59.882Z,1.47
2019-02-21T16:49:47.264Z,1.47
2019-02-21T16:52:41.916Z,1.53
2019-02-21T16:55:36.041Z,1.53
2019-02-21T16:58:30.114Z,1.40
2019-02-21T17:01:17.577Z,1.17
2019-02-21T17:04:12.208Z,1.30
2019-02-21T17:06:59.144Z,1.50
2019-02-21T17:09:55.214Z,1.20
2019-02-21T17:12:42.636Z,1.33
2019-02-21T17:15:36.907Z,1.53
2019-02-21T17:18:29.882Z,1.40
2019-02-21T17:21:23.872Z,1.27
2019-02-21T17:24:11.112Z,1.50
2019-02-21T17:27:05.454Z,1.40
2019-02-21T17:29:52.680Z,1.40
2019-02-21T17:32:46.563Z,1.20
2019-02-21T17:35:34.182Z,1.20
2019-02-21T17:38:27.896Z,1.50
2019-02-21T17:41:21.796Z,1.70
2019-02-21T17:44:15.986Z,1.50
2019-02-21T17:47:05.005Z,1.40
2019-02-21T17:49:59.094Z,1.10
2019-02-21T17:52:46.410Z,1.40
2019-02-21T17:55:47.365Z,1.60
2019-02-21T17:58:42.532Z,1.43
2019-02-21T18:01:36.682Z,1.33
2019-02-21T18:04:24.018Z,1.40
2019-02-21T18:07:18.467Z,1.50
2019-02-21T18:10:07.205Z,1.50
2019-02-21T18:13:01.252Z,1.50
2019-02-21T18:15:48.179Z,1.30
2019-02-21T18:18:42.196Z,1.70
2019-02-21T18:21:29.462Z,1.67
2019-02-21T18:24:23.278Z,1.70
2019-02-21T18:27:10.356Z,1.37
2019-02-21T18:32:53.728Z,1.50
2019-02-21T18:35:48.118Z,1.40
2019-02-21T18:38:35.672Z,1.40
2019-02-21T18:41:29.950Z,1.70
2019-02-21T18:44:24.810Z,1.60
2019-02-21T18:47:18.826Z,1.50
2019-02-21T18:50:06.879Z,1.63
2019-02-21T18:53:03.693Z,1.90
2019-02-21T18:55:59.773Z,1.60
2019-02-21T18:59:01.195Z,1.80
2019-02-21T19:01:48.624Z,1.50
2019-02-21T19:04:44.561Z,1.50
2019-02-21T19:07:31.926Z,1.40
2019-02-21T19:10:26.772Z,1.87
2019-02-21T19:13:14.352Z,1.80
2019-02-21T19:16:10.548Z,1.97
2019-02-21T19:18:57.558Z,1.50
2019-02-21T19:21:51.512Z,1.70
2019-02-21T19:24:38.847Z,1.90
2019-02-21T19:27:37.104Z,1.37
2019-02-21T19:30:25.545Z,1.57
2019-02-21T19:33:19.857Z,1.80
2019-02-21T19:36:07.177Z,1.80
2019-02-21T19:39:00.994Z,1.43
2019-02-21T19:41:48.381Z,1.70
2019-02-21T19:44:42.810Z,1.60
2019-02-21T19:47:36.660Z,1.87
2019-02-21T19:50:31.530Z,1.87
2019-02-21T19:53:19.193Z,1.83
2019-02-21T19:56:13.315Z,1.87
2019-02-21T19:59:00.935Z,1.63
2019-02-21T20:02:01.381Z,1.73
2019-02-21T20:04:55.415Z,1.60
2019-02-21T20:07:51.021Z,1.50
2019-02-21T20:10:38.675Z,1.77
2019-02-21T20:13:32.199Z,1.97
2019-02-21T20:16:19.271Z,1.80
2019-02-21T20:19:13.475Z,1.70
2019-02-21T20:22:00.661Z,1.60
2019-02-21T20:24:55.048Z,1.60
2019-02-21T20:27:42.490Z,1.67
2019-02-21T20:30:37.003Z,1.80
2019-02-21T20:33:24.115Z,1.87
2019-02-21T20:36:18.555Z,1.80
2019-02-21T20:39:21.975Z,1.90
2019-02-21T20:42:22.338Z,1.70
2019-02-21T20:45:10.391Z,1.80
2019-02-21T20:48:13.813Z,2.10
2019-02-21T20:51:01.663Z,1.80
2019-02-21T20:53:55.626Z,1.80
2019-02-21T20:56:42.807Z,1.70
2019-02-21T20:59:39.688Z,1.50
2019-02-21T21:02:33.617Z,1.80
2019-02-21T21:05:34.592Z,1.70
2019-02-21T21:08:21.698Z,1.87
2019-02-21T21:11:15.949Z,2.00
2019-02-21T21:14:02.967Z,1.70
2019-02-21T21:16:57.425Z,1.97
2019-02-21T21:19:44.841Z,2.20
2019-02-21T21:22:38.558Z,1.90
2019-02-21T21:25:25.866Z,1.57
2019-02-21T21:28:21.812Z,1.80
2019-02-21T21:31:10.849Z,2.13
2019-02-21T21:34:06.707Z,2.10
2019-02-21T21:36:55.671Z,1.80
2019-02-21T21:39:49.343Z,2.10
2019-02-21T21:42:36.795Z,1.97
2019-02-21T21:45:32.397Z,1.90
2019-02-21T21:48:19.933Z,1.90
2019-02-21T21:51:20.548Z,1.97
2019-02-21T21:54:09.761Z,2.00
2019-02-21T21:57:03.733Z,1.70
2019-02-21T21:59:51.061Z,2.00
2019-02-21T22:02:46.090Z,2.10
2019-02-21T22:05:42.221Z,2.00
2019-02-21T22:08:36.852Z,1.83
2019-02-21T22:11:24.107Z,1.90
2019-02-21T22:14:19.571Z,1.93
2019-02-21T22:17:06.963Z,1.90
2019-02-21T22:20:00.638Z,1.70
2019-02-21T22:22:48.257Z,1.80
2019-02-21T22:25:42.007Z,2.00
2019-02-21T22:28:29.270Z,1.63
2019-02-21T22:31:23.188Z,1.80
2019-02-21T22:34:10.610Z,1.60
2019-02-21T22:37:12.337Z,1.70
2019-02-21T22:39:59.537Z,1.70
2019-02-21T22:42:53.845Z,1.60
2019-02-21T22:45:41.308Z,1.50
2019-02-21T22:48:35.058Z,1.60
2019-02-21T22:51:23.782Z,1.70
2019-02-21T22:54:24.923Z,1.70
2019-02-21T22:57:12.223Z,1.50
2019-02-21T23:00:06.967Z,1.80
2019-02-21T23:02:54.238Z,1.57
2019-02-21T23:06:08.124Z,1.70
2019-02-21T23:09:03.223Z,1.53
2019-02-21T23:11:57.401Z,1.57
2019-02-21T23:14:44.606Z,1.50
2019-02-21T23:17:39.092Z,1.33
2019-02-21T23:20:26.514Z,1.40
2019-02-21T23:23:20.867Z,1.50
2019-02-21T23:26:08.296Z,1.80
2019-02-21T23:29:02.592Z,1.70
2019-02-21T23:31:50.148Z,1.43
2019-02-21T23:34:45.681Z,1.50
2019-02-21T23:37:33.107Z,1.50
2019-02-21T23:40:26.823Z,1.40
2019-02-21T23:43:14.377Z,1.50
2019-02-21T23:46:07.972Z,1.50
2019-02-21T23:48:55.192Z,1.60
2019-02-21T23:51:49.066Z,1.07
2019-02-21T23:54:36.155Z,1.23
2019-02-21T23:57:37.076Z,1.50
